Time;durP1;ratioP1;P1;durP2;ratioP2;P2;SDS_P1;SDS_P2;PMS_P1;PMS_P2;Temp;Humidity;BMP_temperature;BMP_pressure;BME280_temperature;BME280_humidity;BME280_pressure;Samples;Min_cycle;Max_cycle;Signal;HPM_P1;HPM_P2
2022/06/12 00:01:05;;;;;;;;;;;;;;;18.02;52.46;100327.34;1606598;89;20203;-63
2022/06/12 00:04:08;;;;;;;;;;;;;;;17.94;52.52;100315.15;1607732;89;20607;-63
2022/06/12 00:07:12;;;;;;;;;;;;;;;17.88;52.60;100321.06;1615832;88;20540;-60
2022/06/12 00:10:16;;;;;;;;;;;;;;;17.86;52.83;100327.88;1619004;88;20602;-63
2022/06/12 00:13:25;;;;;;;;;;;;;;;17.87;53.03;100323.50;1614356;88;20263;-63
2022/06/12 00:16:28;;;;;;;;;;;;;;;17.89;53.19;100314.97;1616601;88;20248;-62
2022/06/12 00:19:33;;;;;;;;;;;;;;;17.89;53.23;100317.21;1622106;86;20242;-60
2022/06/12 00:22:37;;;;;;;;;;;;;;;17.88;53.22;100311.37;1625731;87;20253;-61
2022/06/12 00:25:42;;;;;;;;;;;;;;;17.89;53.33;100313.58;1625214;87;20567;-61
2022/06/12 00:28:46;;;;;;;;;;;;;;;17.90;53.43;100308.37;1628131;87;20242;-61
2022/06/12 00:31:53;;;;;;;;;;;;;;;17.93;53.57;100307.06;1625464;87;20265;-62
2022/06/12 00:35:00;;;;;;;;;;;;;;;17.97;53.66;100302.23;1641239;86;20193;-63
2022/06/12 00:38:04;;;;;;;;;;;;;;;18.02;53.74;100300.16;1641926;86;20197;-63
2022/06/12 00:41:11;;;;;;;;;;;;;;;18.04;53.73;100304.42;1641216;87;20498;-63
2022/06/12 00:44:18;;;;;;;;;;;;;;;18.04;53.70;100310.48;1641659;87;20229;-63
2022/06/12 00:47:22;;;;;;;;;;;;;;;18.00;53.60;100299.56;1641912;86;20538;-63
2022/06/12 00:50:28;;;;;;;;;;;;;;;17.92;53.52;100300.66;1641555;87;20554;-63
2022/06/12 00:53:37;;;;;;;;;;;;;;;17.87;53.59;100295.80;1641614;87;20193;-62
2022/06/12 00:56:47;;;;;;;;;;;;;;;17.79;53.56;100313.25;1641069;87;20202;-62
2022/06/12 00:59:59;;;;;;;;;;;;;;;17.70;53.54;100309.03;1641122;87;20314;-63
2022/06/12 01:03:07;;;;;;;;;;;;;;;17.61;53.58;100306.23;1642283;87;20301;-62
2022/06/12 01:09:38;;;;;;;;;;;;;;;17.48;53.80;100298.01;1641450;86;20186;-63
2022/06/12 01:12:50;;;;;;;;;;;;;;;17.43;53.94;100295.02;1641255;87;20253;-63
2022/06/12 01:16:04;;;;;;;;;;;;;;;17.39;53.99;100297.41;1640649;87;20331;-62
2022/06/12 01:19:10;;;;;;;;;;;;;;;17.33;54.09;100290.52;1640045;87;20224;-63
2022/06/12 01:22:38;;;;;;;;;;;;;;;17.27;54.14;100299.69;1643138;83;20205;-63
2022/06/12 01:26:01;;;;;;;;;;;;;;;17.24;54.29;100295.98;1642643;87;20273;-61
2022/06/12 01:29:14;;;;;;;;;;;;;;;17.20;54.47;100297.50;1639606;87;20221;-61
2022/06/12 01:32:29;;;;;;;;;;;;;;;17.16;54.59;100297.61;1641711;87;20545;-62
2022/06/12 01:35:55;;;;;;;;;;;;;;;17.09;54.59;100294.05;1640533;87;20210;-62
2022/06/12 01:39:26;;;;;;;;;;;;;;;17.06;54.66;100293.11;1640034;87;20201;-62
2022/06/12 01:43:00;;;;;;;;;;;;;;;17.01;54.73;100292.91;1640590;87;20214;-62
2022/06/12 01:46:17;;;;;;;;;;;;;;;16.99;54.90;100292.27;1642272;87;20566;-61
2022/06/12 01:49:26;;;;;;;;;;;;;;;17.00;55.10;100296.20;1639997;86;20238;-61
2022/06/12 01:52:38;;;;;;;;;;;;;;;17.01;55.18;100287.38;1642323;87;20201;-62
2022/06/12 01:55:58;;;;;;;;;;;;;;;17.01;55.27;100289.62;1641613;87;20209;-61
2022/06/12 01:59:12;;;;;;;;;;;;;;;17.03;55.39;100294.94;1642077;87;20214;-60
2022/06/12 02:02:26;;;;;;;;;;;;;;;17.06;55.55;100285.64;1641184;87;20238;-60
2022/06/12 02:05:40;;;;;;;;;;;;;;;17.09;55.67;100294.91;1641033;87;20194;-60
2022/06/12 02:08:54;;;;;;;;;;;;;;;17.17;55.88;100292.41;1640827;87;20229;-62
2022/06/12 02:15:40;;;;;;;;;;;;;;;17.33;56.06;100299.66;1642371;87;20550;-62
2022/06/12 02:18:50;;;;;;;;;;;;;;;17.40;56.05;100296.84;1641987;86;20198;-62
2022/06/12 02:21:56;;;;;;;;;;;;;;;17.45;56.03;100294.30;1641234;85;20205;-62
2022/06/12 02:25:06;;;;;;;;;;;;;;;17.48;56.00;100299.39;1644761;87;20229;-61
2022/06/12 02:28:28;;;;;;;;;;;;;;;17.51;55.97;100300.33;1644773;87;20241;-60
2022/06/12 02:31:35;;;;;;;;;;;;;;;17.53;55.98;100301.82;1644921;87;20214;-61
2022/06/12 02:34:44;;;;;;;;;;;;;;;17.59;56.17;100298.68;1644825;87;20217;-61
2022/06/12 02:38:00;;;;;;;;;;;;;;;17.66;56.27;100300.88;1644901;87;20249;-61
2022/06/12 02:41:15;;;;;;;;;;;;;;;17.74;56.35;100298.67;1644802;87;20210;-62
2022/06/12 02:44:33;;;;;;;;;;;;;;;17.81;56.33;100293.08;1645214;87;20202;-63
2022/06/12 02:47:39;;;;;;;;;;;;;;;17.83;56.25;100293.19;1644624;87;20190;-63
2022/06/12 02:50:47;;;;;;;;;;;;;;;17.89;56.23;100291.42;1645134;86;20209;-62
2022/06/12 02:54:18;;;;;;;;;;;;;;;17.93;56.20;100299.05;1644814;87;20261;-62
2022/06/12 02:57:35;;;;;;;;;;;;;;;17.97;56.21;100295.83;1644857;87;20189;-62
2022/06/12 03:00:43;;;;;;;;;;;;;;;18.04;56.34;100294.72;1644889;87;20249;-62
2022/06/12 03:03:59;;;;;;;;;;;;;;;18.12;56.39;100292.20;1644676;87;20189;-62
2022/06/12 03:07:05;;;;;;;;;;;;;;;18.22;56.39;100293.93;1644929;87;20196;-62
2022/06/12 03:10:12;;;;;;;;;;;;;;;18.32;56.42;100288.69;1629506;87;20195;-62
2022/06/12 03:13:18;;;;;;;;;;;;;;;18.42;56.49;100292.69;1644945;87;20221;-63
2022/06/12 03:16:24;;;;;;;;;;;;;;;18.56;56.54;100287.31;1645167;87;20253;-62
2022/06/12 03:19:33;;;;;;;;;;;;;;;18.70;56.58;100288.86;1649639;84;20206;-62
2022/06/12 03:22:51;;;;;;;;;;;;;;;18.83;56.60;100280.39;1658836;82;20212;-62
2022/06/12 03:25:59;;;;;;;;;;;;;;;18.98;56.64;100284.98;1679154;85;20195;-62
2022/06/12 03:29:11;;;;;;;;;;;;;;;19.13;56.63;100285.98;1679676;85;20567;-62
2022/06/12 03:32:41;;;;;;;;;;;;;;;19.25;56.61;100286.34;1670812;83;20222;-62
2022/06/12 03:36:04;;;;;;;;;;;;;;;19.33;56.61;100288.53;1661171;85;20571;-63
2022/06/12 03:39:24;;;;;;;;;;;;;;;19.40;56.64;100281.80;1679777;85;20571;-63
2022/06/12 03:42:38;;;;;;;;;;;;;;;19.48;56.70;100284.77;1679852;85;20207;-62
2022/06/12 03:45:46;;;;;;;;;;;;;;;19.54;56.70;100281.91;1679089;85;20618;-62
2022/06/12 03:49:05;;;;;;;;;;;;;;;19.57;56.67;100276.44;1656323;85;20848;-63
2022/06/12 03:52:29;;;;;;;;;;;;;;;19.64;56.69;100279.94;1678946;85;20207;-61
2022/06/12 03:59:21;;;;;;;;;;;;;;;19.87;56.83;100285.02;1679156;85;20362;-63
2022/06/12 04:02:28;;;;;;;;;;;;;;;20.00;56.92;100279.78;1678636;85;20219;-62
2022/06/12 04:05:34;;;;;;;;;;;;;;;20.13;56.96;100283.73;1679232;85;20582;-63
2022/06/12 04:08:48;;;;;;;;;;;;;;;20.24;57.00;100280.14;1679678;85;20199;-62
2022/06/12 04:12:03;;;;;;;;;;;;;;;20.38;56.99;100285.23;1679769;85;20203;-63
2022/06/12 04:15:26;;;;;;;;;;;;;;;20.53;57.03;100280.58;1679684;85;20598;-62
2022/06/12 04:18:32;;;;;;;;;;;;;;;20.67;56.99;100282.02;1679887;85;20623;-63
2022/06/12 04:21:51;;;;;;;;;;;;;;;20.79;56.97;100280.05;1679596;85;20195;-60
2022/06/12 04:25:00;;;;;;;;;;;;;;;20.92;56.92;100283.96;1680737;81;20586;-60
2022/06/12 04:28:06;;;;;;;;;;;;;;;21.10;57.00;100279.66;1679037;85;20270;-61
2022/06/12 04:31:15;;;;;;;;;;;;;;;21.29;57.02;100274.21;1679482;85;20211;-61
2022/06/12 04:34:28;;;;;;;;;;;;;;;21.51;57.00;100280.78;1679597;85;20360;-61
2022/06/12 04:37:36;;;;;;;;;;;;;;;21.73;56.96;100281.75;1679492;85;20242;-62
2022/06/12 04:40:41;;;;;;;;;;;;;;;21.94;56.90;100274.09;1679058;85;20203;-61
2022/06/12 04:43:47;;;;;;;;;;;;;;;22.13;56.84;100275.53;1663850;85;20231;-61
2022/06/12 04:46:53;;;;;;;;;;;;;;;22.31;56.73;100274.40;1679454;85;20625;-60
2022/06/12 04:49:59;;;;;;;;;;;;;;;22.44;56.71;100269.05;1679436;85;20295;-61
2022/06/12 04:53:06;;;;;;;;;;;;;;;22.57;56.67;100272.88;1679354;85;20262;-61
2022/06/12 04:56:11;;;;;;;;;;;;;;;22.69;56.61;100266.66;1679479;85;20201;-61
2022/06/12 04:59:15;;;;;;;;;;;;;;;22.80;56.63;100266.52;1679347;85;20543;-61
2022/06/12 05:02:21;;;;;;;;;;;;;;;22.91;56.57;100269.74;1679371;85;20538;-59
2022/06/12 05:05:28;;;;;;;;;;;;;;;23.02;56.58;100262.36;1679546;85;20262;-59
2022/06/12 05:08:34;;;;;;;;;;;;;;;23.12;56.58;100263.33;1679529;85;20338;-60
2022/06/12 05:11:40;;;;;;;;;;;;;;;23.23;56.51;100262.92;1679441;85;20214;-59
2022/06/12 05:14:46;;;;;;;;;;;;;;;23.36;56.48;100263.92;1679309;85;20191;-59
2022/06/12 05:17:54;;;;;;;;;;;;;;;23.47;56.50;100264.33;1679522;85;20238;-60
2022/06/12 05:21:00;;;;;;;;;;;;;;;23.60;56.48;100259.17;1679142;85;20207;-60
2022/06/12 05:24:09;;;;;;;;;;;;;;;23.74;56.45;100254.56;1680093;81;20222;-60
2022/06/12 05:27:15;;;;;;;;;;;;;;;23.88;56.48;100255.81;1678945;85;20277;-60
2022/06/12 05:30:24;;;;;;;;;;;;;;;24.01;56.42;100256.23;1679600;84;20222;-59
2022/06/12 05:33:28;;;;;;;;;;;;;;;24.13;56.36;100257.46;1730572;81;20562;-60
2022/06/12 05:36:32;;;;;;;;;;;;;;;24.25;56.33;100254.77;1730510;83;20234;-60
2022/06/12 05:39:37;;;;;;;;;;;;;;;24.39;56.28;100253.73;1730518;83;20214;-59
2022/06/12 05:42:43;;;;;;;;;;;;;;;24.51;56.23;100252.45;1710074;84;20675;-60
2022/06/12 05:45:47;;;;;;;;;;;;;;;24.61;56.12;100249.69;1709636;84;20200;-60
2022/06/12 05:48:52;;;;;;;;;;;;;;;24.72;56.08;100255.67;1709689;84;20305;-60
2022/06/12 05:51:58;;;;;;;;;;;;;;;24.82;56.00;100251.53;1724946;82;20211;-60
2022/06/12 05:55:02;;;;;;;;;;;;;;;24.95;55.96;100258.59;1737760;82;20558;-59
2022/06/12 05:58:09;;;;;;;;;;;;;;;25.05;55.84;100254.45;1737801;82;20214;-60
2022/06/12 06:01:15;;;;;;;;;;;;;;;25.13;55.74;100250.28;1738114;82;20242;-60
2022/06/12 06:04:20;;;;;;;;;;;;;;;25.24;55.65;100248.65;1738160;82;20210;-60
2022/06/12 06:07:27;;;;;;;;;;;;;;;25.35;55.51;100246.75;1738424;82;20226;-60
2022/06/12 06:10:34;;;;;;;;;;;;;;;25.45;55.43;100242.00;1738645;82;20261;-60
2022/06/12 06:13:38;;;;;;;;;;;;;;;25.55;55.30;100242.58;1738269;82;20210;-60
2022/06/12 06:16:43;;;;;;;;;;;;;;;25.63;55.16;100242.05;1738363;82;20206;-60
2022/06/12 06:19:47;;;;;;;;;;;;;;;25.71;55.05;100236.73;1738104;82;20218;-59
2022/06/12 06:23:02;;;;;;;;;;;;;;;25.81;54.95;100238.17;1738537;82;20511;-59
2022/06/12 06:26:08;;;;;;;;;;;;;;;25.91;54.87;100240.95;1736542;82;20237;-59
2022/06/12 06:29:14;;;;;;;;;;;;;;;26.00;54.82;100242.69;1738691;82;20519;-59
2022/06/12 06:32:12;;;;;;;;;;;;;;;26.10;54.81;100244.11;1735078;82;20218;-60
2022/06/12 06:35:08;;;;;;;;;;;;;;;26.22;54.82;100234.83;1732638;83;20283;-61
2022/06/12 06:38:15;;;;;;;;;;;;;;;26.33;54.76;100225.27;1732629;83;20218;-62
2022/06/12 06:41:21;;;;;;;;;;;;;;;26.44;54.54;100226.39;1732362;83;20206;-60
2022/06/12 06:47:50;;;;;;;;;;;;;;;26.66;54.23;100230.84;1732462;83;20214;-62
2022/06/12 06:50:54;;;;;;;;;;;;;;;26.76;54.07;100226.06;1732684;83;20214;-61
2022/06/12 06:53:59;;;;;;;;;;;;;;;26.87;53.94;100226.86;1732541;83;20593;-61
2022/06/12 06:57:03;;;;;;;;;;;;;;;26.98;53.91;100223.73;1731808;83;20582;-59
2022/06/12 07:00:08;;;;;;;;;;;;;;;27.08;53.88;100216.67;1732370;83;20230;-62
2022/06/12 07:03:15;;;;;;;;;;;;;;;27.20;53.86;100219.98;1732880;83;20195;-60
2022/06/12 07:06:23;;;;;;;;;;;;;;;27.32;53.69;100217.69;1732596;83;20214;-59
2022/06/12 07:09:30;;;;;;;;;;;;;;;27.40;53.58;100228.33;1732798;83;20203;-61
2022/06/12 07:12:37;;;;;;;;;;;;;;;27.49;53.47;100219.58;1733140;83;20190;-62
2022/06/12 07:15:42;;;;;;;;;;;;;;;27.57;53.42;100216.70;1733019;83;20223;-61
2022/06/12 07:18:49;;;;;;;;;;;;;;;27.65;53.34;100218.32;1733030;83;20194;-63
2022/06/12 07:21:56;;;;;;;;;;;;;;;27.73;53.22;100215.48;1733046;83;20214;-61
2022/06/12 07:25:02;;;;;;;;;;;;;;;27.83;53.10;100216.79;1732965;83;20194;-62
2022/06/12 07:28:08;;;;;;;;;;;;;;;27.90;52.94;100215.08;1729674;81;20527;-59
2022/06/12 07:31:14;;;;;;;;;;;;;;;27.99;52.78;100210.53;1680391;83;20548;-62
2022/06/12 07:34:20;;;;;;;;;;;;;;;28.10;52.74;100213.53;1678669;85;20212;-62
2022/06/12 07:37:27;;;;;;;;;;;;;;;28.21;52.62;100213.71;1678570;85;20245;-61
2022/06/12 07:40:36;;;;;;;;;;;;;;;28.30;52.46;100218.41;1678355;85;20794;-62
2022/06/12 07:43:43;;;;;;;;;;;;;;;28.43;52.34;100209.83;1678747;85;20549;-61
2022/06/12 07:46:50;;;;;;;;;;;;;;;28.56;52.25;100214.22;1678281;85;20221;-63
2022/06/12 07:49:56;;;;;;;;;;;;;;;28.68;52.05;100220.30;1663604;85;20295;-61
2022/06/12 07:53:01;;;;;;;;;;;;;;;28.75;51.87;100215.69;1678818;85;20538;-61
2022/06/12 07:56:06;;;;;;;;;;;;;;;28.82;51.68;100213.37;1678924;83;20252;-63
2022/06/12 07:59:12;;;;;;;;;;;;;;;28.91;51.55;100214.38;1729828;83;20238;-60
2022/06/12 08:02:17;;;;;;;;;;;;;;;29.00;51.49;100205.55;1700796;84;20518;-60
2022/06/12 08:05:24;;;;;;;;;;;;;;;29.09;51.38;100208.84;1700862;84;20537;-62
2022/06/12 08:08:30;;;;;;;;;;;;;;;29.15;51.29;100206.78;1701116;84;20184;-62
2022/06/12 08:11:35;;;;;;;;;;;;;;;29.24;51.17;100207.22;1700525;84;20252;-60
2022/06/12 08:14:41;;;;;;;;;;;;;;;29.33;51.01;100201.75;1700848;84;20217;-63
2022/06/12 08:17:49;;;;;;;;;;;;;;;29.40;50.80;100199.38;1723446;83;20567;-60
2022/06/12 08:20:59;;;;;;;;;;;;;;;29.52;50.59;100204.58;1729856;83;20593;-61
2022/06/12 08:24:05;;;;;;;;;;;;;;;29.58;50.29;100202.78;1727006;83;20195;-60
2022/06/12 08:27:12;;;;;;;;;;;;;;;29.68;50.14;100197.59;1725319;82;20202;-62
2022/06/12 08:30:17;;;;;;;;;;;;;;;29.74;49.90;100194.39;1675751;85;20223;-61
2022/06/12 08:33:21;;;;;;;;;;;;;;;29.85;49.74;100193.64;1709692;84;20216;-62
2022/06/12 08:36:27;;;;;;;;;;;;;;;29.99;49.40;100187.47;1709918;84;20291;-61
2022/06/12 08:39:33;;;;;;;;;;;;;;;30.09;49.13;100190.13;1709749;84;20569;-62
2022/06/12 08:42:55;;;;;;;;;;;;;;;30.07;48.79;100183.95;1710202;84;20200;-63
2022/06/12 08:46:01;;;;;;;;;;;;;;;30.15;48.59;100181.27;1733815;81;20198;-60
2022/06/12 08:49:15;;;;;;;;;;;;;;;30.25;48.24;100178.30;1739439;82;20542;-61
2022/06/12 08:52:26;;;;;;;;;;;;;;;30.37;48.06;100178.63;1739602;82;20217;-64
2022/06/12 08:55:46;;;;;;;;;;;;;;;30.56;47.86;100172.33;1739340;82;20633;-62
2022/06/12 08:59:02;;;;;;;;;;;;;;;30.71;47.53;100171.75;1739645;82;20205;-62
2022/06/12 09:02:13;;;;;;;;;;;;;;;30.85;47.23;100167.81;1739813;82;20202;-61
2022/06/12 09:05:26;;;;;;;;;;;;;;;30.96;46.91;100162.77;1740043;82;20201;-59
2022/06/12 09:08:38;;;;;;;;;;;;;;;31.06;46.58;100155.50;1733754;82;20211;-60
2022/06/12 09:11:50;;;;;;;;;;;;;;;31.21;46.28;100151.74;1722731;83;20630;-60
2022/06/12 09:15:06;;;;;;;;;;;;;;;31.36;46.01;100154.27;1723104;83;20210;-60
2022/06/12 09:18:35;;;;;;;;;;;;;;;31.51;45.61;100147.39;1723664;83;20183;-61
2022/06/12 09:21:56;;;;;;;;;;;;;;;31.60;45.38;100134.17;1723818;83;20218;-61
2022/06/12 09:25:26;;;;;;;;;;;;;;;31.77;45.09;100137.98;1724374;82;20191;-61
2022/06/12 09:28:46;;;;;;;;;;;;;;;31.92;44.77;100129.72;1722988;82;20615;-60
2022/06/12 09:32:06;;;;;;;;;;;;;;;32.01;44.29;100133.43;1724741;82;20574;-61
2022/06/12 09:35:16;;;;;;;;;;;;;;;32.12;43.95;100122.66;1723986;82;20203;-60
2022/06/12 09:38:49;;;;;;;;;;;;;;;32.21;43.58;100130.05;1724201;82;20528;-62
2022/06/12 09:41:58;;;;;;;;;;;;;;;32.15;43.11;100127.09;1724024;83;20214;-60
2022/06/12 09:45:18;;;;;;;;;;;;;;;32.08;42.90;100121.05;1724140;83;20543;-61
2022/06/12 09:48:43;;;;;;;;;;;;;;;32.14;42.71;100118.92;1708600;83;20218;-60
2022/06/12 09:51:54;;;;;;;;;;;;;;;32.21;42.34;100118.71;1725083;82;20226;-60
2022/06/12 09:55:05;;;;;;;;;;;;;;;32.05;41.92;100120.88;1724425;82;20219;-62
2022/06/12 09:58:34;;;;;;;;;;;;;;;31.73;41.64;100112.86;1724007;83;20199;-62
2022/06/12 10:01:42;;;;;;;;;;;;;;;31.61;41.52;100111.77;1724085;83;20591;-62
2022/06/12 10:04:54;;;;;;;;;;;;;;;31.62;41.20;100103.56;1724430;83;20853;-60
2022/06/12 10:08:06;;;;;;;;;;;;;;;31.70;41.09;100098.50;1724311;83;20215;-59
2022/06/12 10:11:29;;;;;;;;;;;;;;;31.88;40.84;100096.09;1724624;82;20234;-63
2022/06/12 10:14:46;;;;;;;;;;;;;;;32.13;40.64;100086.91;1728551;81;20234;-60
2022/06/12 10:17:57;;;;;;;;;;;;;;;32.34;40.32;100089.45;1737717;82;20202;-60
2022/06/12 10:21:06;;;;;;;;;;;;;;;32.59;40.23;100079.39;1737132;82;20563;-60
2022/06/12 10:24:13;;;;;;;;;;;;;;;32.84;39.86;100083.72;1738060;82;20265;-62
2022/06/12 10:27:19;;;;;;;;;;;;;;;32.94;39.46;100072.68;1737628;82;20590;-62
2022/06/12 10:30:48;;;;;;;;;;;;;;;33.02;39.16;100073.28;1728942;82;20256;-61
2022/06/12 10:33:59;;;;;;;;;;;;;;;33.12;38.92;100057.36;1675196;86;20250;-62
2022/06/12 10:37:06;;;;;;;;;;;;;;;33.17;38.56;100063.70;1683076;84;20217;-61
2022/06/12 10:40:18;;;;;;;;;;;;;;;33.29;38.40;100058.20;1672942;86;20207;-61
2022/06/12 10:43:26;;;;;;;;;;;;;;;33.49;38.28;100065.23;1730807;83;20548;-61
2022/06/12 10:46:34;;;;;;;;;;;;;;;33.65;37.98;100061.31;1724133;81;20831;-61
2022/06/12 10:49:42;;;;;;;;;;;;;;;33.74;37.70;100050.77;1739772;82;20217;-62
2022/06/12 10:53:15;;;;;;;;;;;;;;;33.83;37.47;100047.31;1739561;82;20214;-60
2022/06/12 10:56:39;;;;;;;;;;;;;;;33.89;37.22;100041.70;1738672;82;20210;-61
2022/06/12 10:59:53;;;;;;;;;;;;;;;33.98;36.96;100036.27;1739591;82;20253;-61
2022/06/12 11:03:27;;;;;;;;;;;;;;;34.10;36.79;100036.98;1740016;82;20518;-62
2022/06/12 11:07:06;;;;;;;;;;;;;;;34.10;36.50;100032.73;1689209;83;20217;-62
2022/06/12 11:10:38;;;;;;;;;;;;;;;33.96;36.26;100037.22;1692912;83;20241;-60
2022/06/12 11:13:53;;;;;;;;;;;;;;;33.96;36.13;100028.69;1656832;85;20610;-62
2022/06/12 11:17:12;;;;;;;;;;;;;;;33.88;35.86;100017.31;1678311;85;20219;-61
2022/06/12 11:20:28;;;;;;;;;;;;;;;33.98;35.76;100012.12;1703210;84;20216;-63
2022/06/12 11:23:42;;;;;;;;;;;;;;;34.06;35.51;100009.84;1696450;84;20229;-64
2022/06/12 11:27:16;;;;;;;;;;;;;;;34.13;35.29;100005.05;1699383;84;20280;-62
2022/06/12 11:30:28;;;;;;;;;;;;;;;34.10;35.00;100002.31;1698005;84;20244;-61
2022/06/12 11:33:42;;;;;;;;;;;;;;;34.05;34.84;100001.65;1698343;84;20217;-60
2022/06/12 11:36:53;;;;;;;;;;;;;;;33.75;34.62;100003.56;1698535;84;20220;-61
2022/06/12 11:40:03;;;;;;;;;;;;;;;33.39;34.49;99996.01;1698761;84;20217;-64
2022/06/12 11:43:32;;;;;;;;;;;;;;;33.16;34.41;99997.34;1698711;84;20217;-62
2022/06/12 11:46:58;;;;;;;;;;;;;;;32.96;34.33;99999.44;1703468;82;20202;-62
2022/06/12 11:50:14;;;;;;;;;;;;;;;32.77;34.23;99992.64;1710482;82;20240;-63
2022/06/12 11:53:27;;;;;;;;;;;;;;;32.61;34.18;99998.53;1735370;82;20645;-63
2022/06/12 11:56:50;;;;;;;;;;;;;;;32.46;34.15;99990.48;1687523;84;20321;-60
2022/06/12 12:00:01;;;;;;;;;;;;;;;32.43;34.12;99991.14;1662008;84;20206;-62
2022/06/12 12:03:29;;;;;;;;;;;;;;;32.59;34.13;99983.00;1652611;87;20225;-60
2022/06/12 12:06:59;;;;;;;;;;;;;;;32.77;33.96;99982.71;1679620;83;20244;-61
2022/06/12 12:10:09;;;;;;;;;;;;;;;32.71;33.74;99983.20;1697822;83;20296;-62
2022/06/12 12:13:17;;;;;;;;;;;;;;;32.56;33.68;99985.08;1700812;84;20217;-62
2022/06/12 12:16:31;;;;;;;;;;;;;;;32.53;33.68;99986.59;1700134;84;20252;-61
2022/06/12 12:19:58;;;;;;;;;;;;;;;32.66;33.67;99975.69;1700985;84;20217;-63
2022/06/12 12:23:18;;;;;;;;;;;;;;;32.65;33.57;99983.93;1675250;84;20215;-61
2022/06/12 12:26:41;;;;;;;;;;;;;;;32.57;33.46;99983.33;1669599;86;20259;-60
2022/06/12 12:29:47;;;;;;;;;;;;;;;32.42;33.36;99982.39;1669640;86;20587;-61
2022/06/12 12:32:55;;;;;;;;;;;;;;;32.35;33.36;99979.16;1670209;85;20218;-62
2022/06/12 12:43:13;;;;;;;;;;;;;;;32.20;33.22;99990.96;1669186;85;20242;-62
2022/06/12 12:46:22;;;;;;;;;;;;;;;32.21;33.15;99981.86;1671053;85;20602;-63
2022/06/12 12:49:30;;;;;;;;;;;;;;;32.22;33.10;99983.55;1670158;85;20219;-59
2022/06/12 12:52:35;;;;;;;;;;;;;;;32.23;33.05;99979.55;1671664;85;20211;-60
2022/06/12 12:55:42;;;;;;;;;;;;;;;32.21;32.97;99977.04;1668829;84;20539;-60
2022/06/12 12:59:12;;;;;;;;;;;;;;;32.22;32.95;99975.05;1671717;85;20546;-61
2022/06/12 13:02:41;;;;;;;;;;;;;;;32.31;32.86;99980.16;1671317;85;20578;-60
2022/06/12 13:05:55;;;;;;;;;;;;;;;32.41;32.76;99973.65;1677064;85;20210;-61
2022/06/12 13:09:02;;;;;;;;;;;;;;;32.60;32.57;99971.32;1687506;85;20633;-61
2022/06/12 13:12:38;;;;;;;;;;;;;;;32.75;32.45;99976.53;1687618;85;20209;-60
2022/06/12 13:15:57;;;;;;;;;;;;;;;32.85;32.30;99971.96;1687502;85;20198;-59
2022/06/12 13:19:08;;;;;;;;;;;;;;;32.88;32.20;99969.91;1687843;85;20230;-61
2022/06/12 13:22:25;;;;;;;;;;;;;;;32.82;32.14;99959.87;1687650;85;20265;-62
2022/06/12 13:25:40;;;;;;;;;;;;;;;32.91;32.16;99955.05;1687714;85;20277;-61
2022/06/12 13:28:46;;;;;;;;;;;;;;;32.87;32.00;99956.03;1686972;85;20282;-63
2022/06/12 13:32:08;;;;;;;;;;;;;;;32.88;32.03;99958.56;1670785;85;20253;-63
2022/06/12 13:35:12;;;;;;;;;;;;;;;32.87;31.92;99944.08;1673955;85;20207;-63
2022/06/12 13:38:29;;;;;;;;;;;;;;;32.85;31.92;99940.77;1656347;86;20231;-63
2022/06/12 13:41:48;;;;;;;;;;;;;;;32.82;31.88;99948.52;1671867;85;20248;-62
2022/06/12 13:44:55;;;;;;;;;;;;;;;32.71;31.87;99942.93;1671676;86;20239;-63
2022/06/12 13:47:59;;;;;;;;;;;;;;;32.58;31.98;99935.98;1671505;86;20238;-62
2022/06/12 13:51:38;;;;;;;;;;;;;;;32.52;32.10;99937.31;1671474;86;20254;-62
2022/06/12 13:54:50;;;;;;;;;;;;;;;32.51;32.20;99927.96;1670915;86;20215;-62
2022/06/12 13:57:54;;;;;;;;;;;;;;;32.38;32.32;99933.19;1670681;86;20207;-62
2022/06/12 14:01:02;;;;;;;;;;;;;;;32.24;32.48;99929.62;1670896;86;20223;-60
2022/06/12 14:04:09;;;;;;;;;;;;;;;32.09;32.62;99934.34;1671391;86;20556;-60
2022/06/12 14:07:16;;;;;;;;;;;;;;;31.93;32.57;99939.63;1671360;86;20279;-61
2022/06/12 14:10:26;;;;;;;;;;;;;;;31.81;32.63;99948.42;1671456;86;20215;-62
2022/06/12 14:13:38;;;;;;;;;;;;;;;31.74;32.73;99965.91;1671230;86;20271;-62
2022/06/12 14:16:44;;;;;;;;;;;;;;;31.65;32.88;99963.59;1671671;86;20283;-62
2022/06/12 14:19:49;;;;;;;;;;;;;;;31.48;33.04;99956.99;1671534;85;20560;-62
2022/06/12 14:22:55;;;;;;;;;;;;;;;31.27;33.28;99965.15;1671856;86;20272;-63
2022/06/12 14:26:06;;;;;;;;;;;;;;;31.06;33.51;99954.69;1671370;86;20219;-62
2022/06/12 14:29:32;;;;;;;;;;;;;;;30.81;33.66;99946.83;1671684;86;20275;-62
2022/06/12 14:32:38;;;;;;;;;;;;;;;30.49;33.89;99950.06;1667247;85;20239;-62
2022/06/12 14:35:47;;;;;;;;;;;;;;;30.22;34.21;99968.46;1654888;85;20242;-62
2022/06/12 14:38:53;;;;;;;;;;;;;;;30.07;34.55;99979.21;1655691;85;20245;-62
2022/06/12 14:41:56;;;;;;;;;;;;;;;29.94;34.80;99982.89;1649196;85;20228;-63
2022/06/12 14:44:49;;;;;;;;;;;;;;;29.82;35.04;99981.98;1654077;85;20251;-62
2022/06/12 14:47:56;;;;;;;;;;;;;;;29.72;35.20;99980.76;1648789;87;20292;-61
2022/06/12 14:51:01;;;;;;;;;;;;;;;29.60;35.46;99988.87;1653048;85;20215;-62
2022/06/12 14:54:06;;;;;;;;;;;;;;;29.44;35.75;99987.47;1650385;85;20203;-61
2022/06/12 14:57:13;;;;;;;;;;;;;;;29.30;36.04;99999.28;1635095;87;20242;-62
2022/06/12 15:00:27;;;;;;;;;;;;;;;29.12;36.40;99995.91;1635789;87;20217;-62
2022/06/12 15:03:32;;;;;;;;;;;;;;;28.95;36.75;99989.40;1632484;87;20624;-62
2022/06/12 15:06:39;;;;;;;;;;;;;;;28.82;37.13;99985.09;1633307;87;20220;-62
2022/06/12 15:09:44;;;;;;;;;;;;;;;28.71;37.47;99983.56;1646581;85;20604;-61
2022/06/12 15:12:55;;;;;;;;;;;;;;;28.63;37.80;99982.84;1658098;85;20214;-62
2022/06/12 15:16:00;;;;;;;;;;;;;;;28.51;38.12;99982.45;1659909;85;20611;-61
2022/06/12 15:19:06;;;;;;;;;;;;;;;28.40;38.49;99986.52;1653587;86;20247;-62
2022/06/12 15:22:23;;;;;;;;;;;;;;;28.32;38.82;99990.01;1657260;85;20591;-61
2022/06/12 15:32:27;;;;;;;;;;;;;;;28.20;39.67;99990.43;1663672;85;20251;-61
2022/06/12 15:35:32;;;;;;;;;;;;;;;28.19;39.84;99990.73;1661984;84;20279;-61
2022/06/12 15:38:36;;;;;;;;;;;;;;;28.20;40.07;99990.99;1634010;87;20225;-62
2022/06/12 15:41:41;;;;;;;;;;;;;;;28.25;40.20;99997.97;1648138;87;20252;-63
2022/06/12 15:44:47;;;;;;;;;;;;;;;28.23;40.31;100007.28;1648089;87;20213;-63
2022/06/12 15:47:53;;;;;;;;;;;;;;;28.16;40.43;100011.89;1648199;87;20300;-61
2022/06/12 15:50:59;;;;;;;;;;;;;;;28.16;40.63;100005.41;1648316;87;20229;-61
2022/06/12 15:54:03;;;;;;;;;;;;;;;28.22;40.78;100008.43;1648295;87;20578;-62
2022/06/12 15:57:09;;;;;;;;;;;;;;;28.34;41.03;100008.83;1648066;87;20534;-62
2022/06/12 16:00:15;;;;;;;;;;;;;;;28.42;41.15;100001.12;1661723;85;20597;-62
2022/06/12 16:03:21;;;;;;;;;;;;;;;28.43;41.23;99992.95;1674557;86;20243;-61
2022/06/12 16:06:27;;;;;;;;;;;;;;;28.41;41.36;99986.22;1674841;85;20240;-62
2022/06/12 16:09:32;;;;;;;;;;;;;;;28.46;41.53;99981.08;1670236;86;20524;-61
2022/06/12 16:12:39;;;;;;;;;;;;;;;28.47;41.61;99982.75;1661756;85;20238;-61
2022/06/12 16:15:44;;;;;;;;;;;;;;;28.36;41.66;99993.32;1674043;86;20608;-63
2022/06/12 16:18:50;;;;;;;;;;;;;;;28.23;41.77;99998.83;1675265;85;20243;-63
2022/06/12 16:21:55;;;;;;;;;;;;;;;28.07;41.87;100010.04;1675282;85;20254;-62
2022/06/12 16:25:02;;;;;;;;;;;;;;;27.96;42.02;100017.73;1647501;85;20233;-61
2022/06/12 16:28:09;;;;;;;;;;;;;;;27.84;42.15;100020.92;1648771;86;20619;-61
2022/06/12 16:31:14;;;;;;;;;;;;;;;27.72;42.30;100024.72;1656927;86;20597;-61
2022/06/12 16:34:20;;;;;;;;;;;;;;;27.63;42.51;100020.88;1657776;86;20217;-61
2022/06/12 16:37:25;;;;;;;;;;;;;;;27.51;42.67;100017.60;1648940;85;20572;-61
2022/06/12 16:40:31;;;;;;;;;;;;;;;27.38;42.71;100019.72;1617474;89;20599;-62
2022/06/12 16:43:34;;;;;;;;;;;;;;;27.24;42.82;100024.27;1625383;85;20278;-61
2022/06/12 16:46:43;;;;;;;;;;;;;;;27.11;43.01;100012.32;1645599;85;20620;-62
2022/06/12 16:49:46;;;;;;;;;;;;;;;26.96;43.18;100008.20;1622428;88;20221;-62